createdAt,value
2023-04-23T00:01:09.197Z,60.07
2023-04-23T00:06:11.458Z,60.11
2023-04-23T00:11:13.231Z,60.50
2023-04-23T00:16:15.873Z,60.63
2023-04-23T00:21:17.528Z,59.75
2023-04-23T00:26:19.083Z,60.23
2023-04-23T00:31:22.543Z,61.27
2023-04-23T00:36:24.156Z,63.14
2023-04-23T00:41:27.333Z,64.03
2023-04-23T00:46:28.967Z,64.25
2023-04-23T00:51:32.084Z,64.74
2023-04-23T00:56:33.736Z,64.23
2023-04-23T01:01:35.623Z,63.44
2023-04-23T01:06:37.560Z,62.52
2023-04-23T01:11:40.564Z,62.32
2023-04-23T01:16:42.565Z,62.41
2023-04-23T01:21:44.393Z,62.32
2023-04-23T01:26:46.715Z,62.57
2023-04-23T01:31:48.540Z,62.17
2023-04-23T01:36:51.895Z,62.34
2023-04-23T01:41:53.589Z,62.64
2023-04-23T01:46:56.585Z,62.60
2023-04-23T01:51:58.153Z,62.58
2023-04-23T01:57:00.166Z,62.45
2023-04-23T02:02:01.857Z,63.04
2023-04-23T02:07:03.493Z,63.69
2023-04-23T02:12:05.145Z,63.60
2023-04-23T02:17:07.080Z,63.91
2023-04-23T02:22:09.315Z,63.64
2023-04-23T02:27:10.970Z,64.17
2023-04-23T02:32:12.674Z,64.02
2023-04-23T02:37:14.222Z,64.88
2023-04-23T02:42:16.070Z,64.67
2023-04-23T02:47:17.696Z,65.04
2023-04-23T02:52:19.369Z,64.94
2023-04-23T02:57:21.296Z,65.20
2023-04-23T03:02:23.185Z,65.36
2023-04-23T03:07:25.433Z,66.56
2023-04-23T03:12:27.011Z,66.93
2023-04-23T03:17:28.623Z,66.43
2023-04-23T03:22:30.333Z,66.00
2023-04-23T03:27:32.006Z,65.77
2023-04-23T03:32:33.644Z,65.18
2023-04-23T03:37:35.444Z,64.96
2023-04-23T03:42:38.726Z,65.51
2023-04-23T03:47:41.027Z,64.42
2023-04-23T03:52:43.322Z,64.27
2023-04-23T03:57:52.833Z,64.27
2023-04-23T04:02:58.136Z,66.47
2023-04-23T04:08:01.807Z,66.14
2023-04-23T04:13:04.910Z,64.58
2023-04-23T04:18:06.867Z,64.30
2023-04-23T04:23:08.419Z,64.21
2023-04-23T04:28:11.852Z,64.70
2023-04-23T04:33:15.081Z,66.53
2023-04-23T04:38:16.693Z,66.38
2023-04-23T04:43:18.482Z,65.63
2023-04-23T04:48:20.673Z,66.35
2023-04-23T04:53:22.396Z,66.14
2023-04-23T04:58:23.979Z,66.14
2023-04-23T05:03:26.239Z,65.84
2023-04-23T05:08:27.933Z,64.93
2023-04-23T05:13:29.709Z,64.46
2023-04-23T05:18:31.291Z,64.92
2023-04-23T05:23:33.741Z,65.16
2023-04-23T05:28:35.304Z,64.69
2023-04-23T05:33:46.758Z,64.54
2023-04-23T05:38:51.201Z,64.74
2023-04-23T05:43:52.758Z,65.07
2023-04-23T05:48:54.373Z,64.93
2023-04-23T05:53:55.960Z,64.73
2023-04-23T05:58:57.956Z,64.56
2023-04-23T06:04:00.147Z,64.79
2023-04-23T06:09:01.904Z,64.75
2023-04-23T06:14:03.608Z,64.54
2023-04-23T06:19:05.212Z,64.04
2023-04-23T06:24:08.067Z,63.26
2023-04-23T06:29:09.821Z,63.16
2023-04-23T06:34:34.025Z,62.68
2023-04-23T06:39:35.580Z,62.42
2023-04-23T06:44:37.206Z,62.04
2023-04-23T06:49:40.354Z,62.17
2023-04-23T06:54:42.216Z,62.65
2023-04-23T06:59:43.974Z,63.28
2023-04-23T07:04:46.906Z,62.40
2023-04-23T07:09:48.684Z,61.27
2023-04-23T07:14:53.485Z,60.86
2023-04-23T07:19:55.093Z,60.94
2023-04-23T07:24:56.678Z,61.10
2023-04-23T07:29:58.378Z,61.27
2023-04-23T07:34:59.979Z,61.48
2023-04-23T07:40:02.304Z,61.69
2023-04-23T07:45:05.035Z,61.50
2023-04-23T07:50:07.493Z,62.24
2023-04-23T07:55:09.764Z,62.86
2023-04-23T08:00:12.172Z,62.70
2023-04-23T08:05:13.714Z,62.70
2023-04-23T08:10:15.438Z,62.68
2023-04-23T08:15:17.004Z,63.15
2023-04-23T08:20:19.652Z,63.69
2023-04-23T08:25:21.310Z,63.66
2023-04-23T08:30:23.051Z,63.62
2023-04-23T08:35:24.870Z,63.17
2023-04-23T08:40:30.282Z,62.15
2023-04-23T08:45:31.971Z,60.65
2023-04-23T08:50:33.727Z,60.48
2023-04-23T08:55:38.351Z,61.34
2023-04-23T09:00:40.522Z,61.25
2023-04-23T09:05:42.362Z,62.15
2023-04-23T09:10:44.694Z,62.56
2023-04-23T09:15:46.327Z,62.50
2023-04-23T09:20:47.999Z,61.03
2023-04-23T09:25:49.561Z,60.96
2023-04-23T09:30:51.176Z,60.71
2023-04-23T09:35:52.773Z,60.43
2023-04-23T09:40:54.428Z,59.20
2023-04-23T09:45:56.077Z,58.94
2023-04-23T09:50:57.648Z,58.90
2023-04-23T09:55:59.217Z,59.47
2023-04-23T10:01:10.075Z,59.81
2023-04-23T10:06:30.640Z,59.91
2023-04-23T10:11:37.078Z,59.94
2023-04-23T10:16:48.649Z,58.66
2023-04-23T10:22:05.396Z,58.44
2023-04-23T10:32:27.872Z,57.40
2023-04-23T10:37:29.736Z,57.17
2023-04-23T10:42:31.855Z,57.39
2023-04-23T10:47:33.474Z,57.92
2023-04-23T10:52:35.741Z,57.83
2023-04-23T10:58:13.154Z,57.14
2023-04-23T11:03:29.222Z,57.02
2023-04-23T11:08:34.404Z,56.67
2023-04-23T11:13:35.979Z,57.32
2023-04-23T11:18:56.883Z,58.62
2023-04-23T11:24:02.138Z,61.64
2023-04-23T11:29:04.305Z,61.79
2023-04-23T11:34:05.861Z,61.99
2023-04-23T11:39:08.480Z,60.52
2023-04-23T11:44:10.095Z,60.11
2023-04-23T11:49:13.215Z,61.10
2023-04-23T11:54:15.018Z,60.88
2023-04-23T11:59:16.745Z,59.66
2023-04-23T12:04:23.515Z,59.80
2023-04-23T12:09:27.727Z,60.06
2023-04-23T12:14:30.829Z,60.37
2023-04-23T12:19:32.596Z,60.47
2023-04-23T12:24:48.615Z,61.30
2023-04-23T12:30:00.057Z,61.23
2023-04-23T12:35:01.648Z,61.15
2023-04-23T12:40:07.039Z,61.11
2023-04-23T12:45:09.883Z,60.51
2023-04-23T12:50:12.230Z,60.41
2023-04-23T12:55:13.824Z,60.12
2023-04-23T13:00:15.729Z,60.86
2023-04-23T13:05:17.392Z,60.16
2023-04-23T13:10:19.323Z,60.44
2023-04-23T13:15:20.887Z,59.19
2023-04-23T13:20:22.595Z,57.74
2023-04-23T13:25:24.209Z,57.05
2023-04-23T13:30:25.779Z,56.95
2023-04-23T13:35:27.523Z,57.30
2023-04-23T13:40:29.132Z,57.75
2023-04-23T13:45:30.812Z,58.32
2023-04-23T13:50:32.383Z,58.07
2023-04-23T13:55:33.945Z,57.55
2023-04-23T14:00:35.530Z,58.17
2023-04-23T14:05:38.243Z,58.92
2023-04-23T14:10:42.382Z,57.98
2023-04-23T14:15:45.238Z,57.94
2023-04-23T14:20:47.007Z,57.51
2023-04-23T14:25:53.637Z,58.09
2023-04-23T14:30:56.632Z,57.45
2023-04-23T14:35:58.882Z,57.96
2023-04-23T14:41:00.589Z,58.17
2023-04-23T14:46:02.200Z,58.84
2023-04-23T14:51:04.193Z,58.82
2023-04-23T14:56:06.067Z,58.40
2023-04-23T15:01:07.795Z,60.31
2023-04-23T15:06:09.435Z,62.26
2023-04-23T15:11:13.459Z,62.98
2023-04-23T15:16:40.450Z,63.32
2023-04-23T15:21:49.311Z,63.17
2023-04-23T15:26:53.245Z,63.38
2023-04-23T15:31:58.014Z,63.67
2023-04-23T15:36:59.901Z,63.21
2023-04-23T15:42:02.104Z,62.43
2023-04-23T15:47:03.693Z,62.38
2023-04-23T15:52:05.777Z,62.74
2023-04-23T15:57:07.328Z,63.11
2023-04-23T16:02:09.011Z,63.79
2023-04-23T16:07:10.633Z,64.44
2023-04-23T16:12:12.684Z,64.14
2023-04-23T16:17:14.277Z,63.93
2023-04-23T16:22:17.444Z,65.24
2023-04-23T16:27:19.019Z,65.38
2023-04-23T16:32:20.821Z,64.57
2023-04-23T16:37:22.577Z,64.41
2023-04-23T16:42:24.239Z,65.30
2023-04-23T16:47:26.709Z,65.98
2023-04-23T16:52:28.309Z,66.27
2023-04-23T16:57:30.027Z,66.34
2023-04-23T17:02:32.386Z,65.22
2023-04-23T17:07:34.251Z,65.29
2023-04-23T17:12:35.806Z,65.16
2023-04-23T17:17:38.243Z,65.26
2023-04-23T17:22:39.845Z,65.56
2023-04-23T17:27:41.406Z,65.65
2023-04-23T17:32:43.089Z,66.43
2023-04-23T17:37:44.714Z,67.09
2023-04-23T17:42:46.317Z,67.29
2023-04-23T17:47:47.934Z,67.35
2023-04-23T17:52:51.543Z,67.96
2023-04-23T17:57:53.185Z,68.07
2023-04-23T18:02:55.089Z,68.43
2023-04-23T18:07:57.078Z,69.07
2023-04-23T18:13:01.158Z,69.77
2023-04-23T18:18:03.363Z,70.64
2023-04-23T18:23:06.474Z,71.26
2023-04-23T18:28:08.172Z,71.58
2023-04-23T18:33:16.564Z,71.93
2023-04-23T18:38:31.851Z,72.33
2023-04-23T18:43:34.336Z,72.22
2023-04-23T18:48:35.869Z,72.04
2023-04-23T18:53:38.970Z,72.01
2023-04-23T18:58:40.598Z,72.31
2023-04-23T19:03:42.858Z,71.82
2023-04-23T19:08:44.680Z,72.11
2023-04-23T19:13:46.667Z,71.91
2023-04-23T19:18:48.385Z,72.92
2023-04-23T19:23:51.766Z,73.08
2023-04-23T19:28:53.359Z,73.63
2023-04-23T19:33:54.941Z,74.36
2023-04-23T19:38:57.012Z,74.07
2023-04-23T19:43:58.632Z,74.11
2023-04-23T19:49:00.222Z,74.39
2023-04-23T19:54:02.873Z,74.52
2023-04-23T19:59:07.164Z,75.02
2023-04-23T20:04:09.243Z,75.27
2023-04-23T20:09:18.237Z,75.26
2023-04-23T20:14:20.161Z,75.33
2023-04-23T20:19:25.703Z,75.59
2023-04-23T20:24:27.307Z,75.76
2023-04-23T20:29:30.562Z,76.08
2023-04-23T20:34:32.107Z,76.20
2023-04-23T20:39:34.359Z,76.46
2023-04-23T20:44:36.252Z,76.30
2023-04-23T20:49:38.905Z,76.44
2023-04-23T20:54:40.636Z,76.43
2023-04-23T20:59:42.684Z,76.89
2023-04-23T21:04:44.700Z,76.78
2023-04-23T21:09:46.355Z,76.93
2023-04-23T21:14:47.989Z,77.67
2023-04-23T21:19:49.760Z,77.75
2023-04-23T21:24:51.363Z,77.81
2023-04-23T21:29:53.015Z,78.49
2023-04-23T21:34:54.588Z,78.30
2023-04-23T21:39:56.236Z,79.20
2023-04-23T21:44:57.828Z,79.42
2023-04-23T21:50:00.267Z,79.60
2023-04-23T21:55:01.925Z,79.72
2023-04-23T22:00:06.515Z,79.95
2023-04-23T22:05:16.939Z,80.31
2023-04-23T22:10:19.515Z,79.82
2023-04-23T22:15:21.157Z,80.04
2023-04-23T22:20:24.476Z,80.38
2023-04-23T22:25:26.122Z,80.44
2023-04-23T22:30:27.750Z,80.95
2023-04-23T22:35:29.365Z,80.83
2023-04-23T22:40:30.989Z,80.69
2023-04-23T22:45:32.606Z,80.73
2023-04-23T22:50:34.182Z,81.04
2023-04-23T22:55:35.816Z,81.38
2023-04-23T23:00:37.405Z,81.40
2023-04-23T23:05:39.540Z,81.69
2023-04-23T23:10:41.140Z,81.60
2023-04-23T23:15:42.794Z,81.53
2023-04-23T23:20:45.212Z,81.83
2023-04-23T23:25:46.767Z,81.59
2023-04-23T23:30:49.430Z,81.42
2023-04-23T23:35:51.271Z,81.69
2023-04-23T23:40:52.850Z,81.78
2023-04-23T23:45:54.448Z,82.10
2023-04-23T23:50:56.049Z,81.89
2023-04-23T23:55:58.100Z,82.57
